createdAt,value
2017-10-23T00:01:26.830Z,2.20
2017-10-23T00:03:54.325Z,1.80
2017-10-23T00:06:21.802Z,1.70
2017-10-23T00:08:49.346Z,1.90
2017-10-23T00:11:18.338Z,1.77
2017-10-23T00:13:45.899Z,1.70
2017-10-23T00:16:14.101Z,1.80
2017-10-23T00:18:42.354Z,1.80
2017-10-23T00:21:09.810Z,2.60
2017-10-23T00:23:37.345Z,2.10
2017-10-23T00:26:04.875Z,1.77
2017-10-23T00:28:32.321Z,2.13
2017-10-23T00:30:59.785Z,2.60
2017-10-23T00:33:27.274Z,2.03
2017-10-23T00:35:54.729Z,2.13
2017-10-23T00:38:22.175Z,2.30
2017-10-23T00:40:49.646Z,2.20
2017-10-23T00:43:17.102Z,2.20
2017-10-23T00:45:45.315Z,2.47
2017-10-23T00:48:13.521Z,2.00
2017-10-23T00:50:40.965Z,2.00
2017-10-23T00:53:08.456Z,2.80
2017-10-23T00:55:35.904Z,2.30
2017-10-23T00:58:03.354Z,2.07
2017-10-23T01:00:30.802Z,2.20
2017-10-23T01:02:58.254Z,2.30
2017-10-23T01:05:25.709Z,2.27
2017-10-23T01:07:53.191Z,2.27
2017-10-23T01:10:22.181Z,2.03
2017-10-23T01:12:49.742Z,2.00
2017-10-23T01:15:17.308Z,3.93
2017-10-23T01:17:44.806Z,1.73
2017-10-23T01:20:12.334Z,2.17
2017-10-23T01:22:39.790Z,2.40
2017-10-23T01:25:07.237Z,2.10
2017-10-23T01:27:34.698Z,1.80
2017-10-23T01:30:02.921Z,1.90
2017-10-23T01:32:30.406Z,3.10
2017-10-23T01:34:57.878Z,1.87
2017-10-23T01:37:25.432Z,2.10
2017-10-23T01:39:52.869Z,2.17
2017-10-23T01:42:20.357Z,2.30
2017-10-23T01:44:48.630Z,2.13
2017-10-23T01:47:16.842Z,1.53
2017-10-23T01:49:44.338Z,2.40
2017-10-23T01:52:11.897Z,2.20
2017-10-23T01:54:39.451Z,2.40
2017-10-23T01:57:06.914Z,1.47
2017-10-23T01:59:34.457Z,1.87
2017-10-23T02:02:01.906Z,2.10
2017-10-23T02:04:29.348Z,2.13
2017-10-23T02:06:56.822Z,1.83
2017-10-23T02:09:24.270Z,1.90
2017-10-23T02:11:51.734Z,2.37
2017-10-23T02:14:20.005Z,2.30
2017-10-23T02:16:47.461Z,2.40
2017-10-23T02:19:14.906Z,2.13
2017-10-23T02:21:42.358Z,1.90
2017-10-23T02:24:09.833Z,2.00
2017-10-23T02:26:37.288Z,2.07
2017-10-23T02:29:04.738Z,2.20
2017-10-23T02:31:32.199Z,2.17
2017-10-23T02:33:59.646Z,2.27
2017-10-23T02:36:27.090Z,1.90
2017-10-23T02:38:54.562Z,2.10
2017-10-23T02:41:22.018Z,2.30
2017-10-23T02:43:49.473Z,2.00
2017-10-23T02:46:16.951Z,1.90
2017-10-23T02:48:44.400Z,2.30
2017-10-23T02:51:11.938Z,2.40
2017-10-23T02:53:39.389Z,2.27
2017-10-23T02:56:06.905Z,2.17
2017-10-23T02:58:35.142Z,2.50
2017-10-23T03:01:02.590Z,3.00
2017-10-23T03:03:30.799Z,2.27
2017-10-23T03:05:59.030Z,1.83
2017-10-23T03:08:26.485Z,2.70
2017-10-23T03:10:53.993Z,2.33
2017-10-23T03:13:21.519Z,2.20
2017-10-23T03:15:48.978Z,2.50
2017-10-23T03:18:16.434Z,2.33
2017-10-23T03:20:43.879Z,2.47
2017-10-23T03:23:11.425Z,2.50
2017-10-23T03:25:39.005Z,2.27
2017-10-23T03:28:06.446Z,2.93
2017-10-23T03:30:34.659Z,2.20
2017-10-23T03:33:02.184Z,2.40
2017-10-23T03:35:30.390Z,2.03
2017-10-23T03:37:57.824Z,2.40
2017-10-23T03:40:26.048Z,2.03
2017-10-23T03:42:53.481Z,2.10
2017-10-23T03:45:20.926Z,1.97
2017-10-23T03:47:48.454Z,2.10
2017-10-23T03:50:17.420Z,2.17
2017-10-23T03:52:44.865Z,2.27
2017-10-23T03:55:12.324Z,2.53
2017-10-23T03:57:39.798Z,4.30
2017-10-23T04:00:07.301Z,2.10
2017-10-23T04:02:34.808Z,2.37
2017-10-23T04:05:02.258Z,1.80
2017-10-23T04:07:29.713Z,1.90
2017-10-23T04:09:57.170Z,1.77
2017-10-23T04:12:24.633Z,2.23
2017-10-23T04:14:52.156Z,2.17
2017-10-23T04:17:19.581Z,1.93
2017-10-23T04:19:47.810Z,2.20
2017-10-23T04:22:15.270Z,2.47
2017-10-23T04:24:42.722Z,1.77
2017-10-23T04:27:10.186Z,3.10
2017-10-23T04:29:37.761Z,2.10
2017-10-23T04:32:05.215Z,2.40
2017-10-23T04:34:32.686Z,2.20
2017-10-23T04:37:00.124Z,1.80
2017-10-23T04:39:27.682Z,2.30
2017-10-23T04:41:55.853Z,2.33
2017-10-23T04:44:23.397Z,2.27
2017-10-23T04:46:50.853Z,2.23
2017-10-23T04:49:19.837Z,2.00
2017-10-23T04:51:47.286Z,2.40
2017-10-23T04:54:14.739Z,2.33
2017-10-23T04:56:42.226Z,1.73
2017-10-23T04:59:09.762Z,2.17
2017-10-23T05:01:37.320Z,1.80
2017-10-23T05:04:04.778Z,2.20
2017-10-23T05:06:32.354Z,1.57
2017-10-23T05:08:59.802Z,2.10
2017-10-23T05:11:28.028Z,2.03
2017-10-23T05:13:55.497Z,2.07
2017-10-23T05:16:22.992Z,1.90
2017-10-23T05:18:50.555Z,1.97
2017-10-23T05:21:18.107Z,2.23
2017-10-23T05:23:46.336Z,1.90
2017-10-23T05:26:13.790Z,2.00
2017-10-23T05:28:41.253Z,1.87
2017-10-23T05:31:08.702Z,1.90
2017-10-23T05:33:36.156Z,2.10
2017-10-23T05:36:03.614Z,1.80
2017-10-23T05:38:31.098Z,2.43
2017-10-23T05:40:58.634Z,2.23
2017-10-23T05:43:26.110Z,2.20
2017-10-23T05:45:53.558Z,2.37
2017-10-23T05:48:21.014Z,2.40
2017-10-23T05:50:48.446Z,2.30
2017-10-23T05:53:15.992Z,2.10
2017-10-23T05:55:43.462Z,2.73
2017-10-23T05:58:10.902Z,2.43
2017-10-23T06:00:38.368Z,2.73
2017-10-23T06:03:05.894Z,2.83
2017-10-23T06:05:34.134Z,2.33
2017-10-23T06:08:01.589Z,1.80
2017-10-23T06:10:29.150Z,2.13
2017-10-23T06:12:56.821Z,2.30
2017-10-23T06:15:25.793Z,2.67
2017-10-23T06:17:53.261Z,2.60
2017-10-23T06:20:20.885Z,2.40
2017-10-23T06:22:48.389Z,2.37
2017-10-23T06:25:15.930Z,2.40
2017-10-23T06:27:43.533Z,2.80
2017-10-23T06:30:11.757Z,2.93
2017-10-23T06:32:39.202Z,2.60
2017-10-23T06:35:06.701Z,3.00
2017-10-23T06:37:34.159Z,2.73
2017-10-23T06:40:02.382Z,2.57
2017-10-23T06:42:30.598Z,2.30
2017-10-23T06:44:58.130Z,2.97
2017-10-23T06:47:25.588Z,2.20
2017-10-23T06:49:53.030Z,3.30
2017-10-23T06:52:20.478Z,1.90
2017-10-23T06:54:47.923Z,2.93
2017-10-23T06:57:15.370Z,2.40
2017-10-23T06:59:42.820Z,2.90
2017-10-23T07:02:10.287Z,2.17
2017-10-23T07:04:37.757Z,2.83
2017-10-23T07:07:05.205Z,2.20
2017-10-23T07:09:32.816Z,2.23
2017-10-23T07:12:00.354Z,2.13
2017-10-23T07:14:27.902Z,2.30
2017-10-23T07:16:56.075Z,1.93
2017-10-23T07:19:23.537Z,2.00
2017-10-23T07:21:51.086Z,2.73
2017-10-23T07:24:18.534Z,2.07
2017-10-23T07:26:46.832Z,2.13
2017-10-23T07:29:14.275Z,2.50
2017-10-23T07:31:41.726Z,2.00
2017-10-23T07:34:09.174Z,2.30
2017-10-23T07:36:36.670Z,1.93
2017-10-23T07:39:04.883Z,1.87
2017-10-23T07:41:32.361Z,2.00
2017-10-23T07:43:59.842Z,2.23
2017-10-23T07:46:27.386Z,2.50
2017-10-23T07:48:55.599Z,2.10
2017-10-23T07:51:24.416Z,2.37
2017-10-23T07:53:51.910Z,2.67
2017-10-23T07:56:19.471Z,2.27
2017-10-23T07:58:46.949Z,2.23
2017-10-23T08:01:15.207Z,2.40
2017-10-23T08:03:42.826Z,1.93
2017-10-23T08:06:10.310Z,2.77
2017-10-23T08:08:37.801Z,2.93
2017-10-23T08:11:06.029Z,2.87
2017-10-23T08:13:33.498Z,3.63
2017-10-23T08:16:01.066Z,2.10
2017-10-23T08:18:28.622Z,3.50
2017-10-23T08:20:56.082Z,3.30
2017-10-23T08:23:23.558Z,2.80
2017-10-23T08:25:51.757Z,3.20
2017-10-23T08:28:19.202Z,2.60
2017-10-23T08:30:46.718Z,3.77
2017-10-23T08:33:14.821Z,3.17
2017-10-23T08:35:42.278Z,3.23
2017-10-23T08:38:09.743Z,2.80
2017-10-23T08:40:37.177Z,2.43
2017-10-23T08:43:05.444Z,2.33
2017-10-23T08:45:33.696Z,3.07
2017-10-23T08:48:01.251Z,2.67
2017-10-23T08:50:28.806Z,2.70
2017-10-23T08:52:56.753Z,3.10
2017-10-23T08:55:24.326Z,2.57
2017-10-23T08:57:51.774Z,2.43
2017-10-23T09:00:19.233Z,2.60
2017-10-23T09:02:46.805Z,2.27
2017-10-23T09:05:15.009Z,4.27
2017-10-23T09:07:43.273Z,2.40
2017-10-23T09:10:11.536Z,2.27
2017-10-23T09:12:39.650Z,2.30
2017-10-23T09:15:07.133Z,2.23
2017-10-23T09:17:34.573Z,2.43
2017-10-23T09:20:02.066Z,2.40
2017-10-23T09:22:29.503Z,2.73
2017-10-23T09:24:56.961Z,2.47
2017-10-23T09:27:24.426Z,2.53
2017-10-23T09:29:51.985Z,2.40
2017-10-23T09:32:19.530Z,2.00
2017-10-23T09:34:47.001Z,2.50
2017-10-23T09:37:14.446Z,2.10
2017-10-23T09:39:41.902Z,3.63
2017-10-23T09:42:09.350Z,2.60
2017-10-23T09:44:36.820Z,2.90
2017-10-23T09:47:04.378Z,3.20
2017-10-23T09:49:31.830Z,2.60
2017-10-23T09:51:59.281Z,2.10
2017-10-23T09:54:26.860Z,2.87
2017-10-23T09:56:54.302Z,2.37
2017-10-23T09:59:21.750Z,2.57
2017-10-23T10:01:49.310Z,2.10
2017-10-23T10:04:16.791Z,2.00
2017-10-23T10:06:44.325Z,2.67
2017-10-23T10:09:11.780Z,2.37
2017-10-23T10:11:39.247Z,3.20
2017-10-23T10:14:07.518Z,2.23
2017-10-23T10:16:34.981Z,2.67
2017-10-23T10:19:02.542Z,1.97
2017-10-23T10:21:30.099Z,2.00
2017-10-23T10:23:57.558Z,1.60
2017-10-23T10:26:25.081Z,2.13
2017-10-23T10:28:52.533Z,1.70
2017-10-23T10:31:19.990Z,2.20
2017-10-23T10:33:47.442Z,2.50
2017-10-23T10:36:14.909Z,2.00
2017-10-23T10:38:42.357Z,1.83
2017-10-23T10:41:09.820Z,1.70
2017-10-23T10:43:37.278Z,2.20
2017-10-23T10:46:04.734Z,2.90
2017-10-23T10:48:32.177Z,2.70
2017-10-23T10:50:59.647Z,2.37
2017-10-23T10:53:27.094Z,2.20
2017-10-23T10:55:54.562Z,1.90
2017-10-23T10:58:22.006Z,2.10
2017-10-23T11:00:49.539Z,2.53
2017-10-23T11:03:16.989Z,2.40
2017-10-23T11:05:44.450Z,2.10
2017-10-23T11:08:11.909Z,2.53
2017-10-23T11:10:39.361Z,2.00
2017-10-23T11:13:06.958Z,1.73
2017-10-23T11:15:35.937Z,1.60
2017-10-23T11:18:03.403Z,3.90
2017-10-23T11:20:30.985Z,1.90
2017-10-23T11:22:58.436Z,1.80
2017-10-23T11:25:25.898Z,1.70
2017-10-23T11:27:53.340Z,1.90
2017-10-23T11:30:20.807Z,1.93
2017-10-23T11:32:49.167Z,2.20
2017-10-23T11:35:16.623Z,2.20
2017-10-23T11:37:44.146Z,2.00
2017-10-23T11:40:11.590Z,1.97
2017-10-23T11:42:39.034Z,2.00
2017-10-23T11:45:06.486Z,1.87
2017-10-23T11:47:33.946Z,1.93
2017-10-23T11:50:01.408Z,1.67
2017-10-23T11:52:28.910Z,1.63
2017-10-23T11:54:56.367Z,1.80
2017-10-23T11:57:23.830Z,1.60
2017-10-23T11:59:51.285Z,2.00
2017-10-23T12:02:18.845Z,2.07
2017-10-23T12:04:46.406Z,2.07
2017-10-23T12:07:13.866Z,2.13
2017-10-23T12:09:42.089Z,2.23
2017-10-23T12:12:09.537Z,2.30
2017-10-23T12:14:37.012Z,1.77
2017-10-23T12:17:04.550Z,1.70
2017-10-23T12:19:31.994Z,2.20
2017-10-23T12:21:59.455Z,2.30
2017-10-23T12:24:26.910Z,3.90
2017-10-23T12:26:54.410Z,2.60
2017-10-23T12:29:21.861Z,2.40
2017-10-23T12:31:49.418Z,2.40
2017-10-23T12:34:16.975Z,2.37
2017-10-23T12:36:44.537Z,1.90
2017-10-23T12:39:12.004Z,2.50
2017-10-23T12:41:39.465Z,2.50
2017-10-23T12:44:06.905Z,2.57
2017-10-23T12:46:34.369Z,2.40
2017-10-23T12:49:01.823Z,2.97
2017-10-23T12:51:29.275Z,2.60
2017-10-23T12:53:57.490Z,2.57
2017-10-23T12:56:24.942Z,2.93
2017-10-23T12:58:52.391Z,3.33
2017-10-23T13:01:20.615Z,3.43
2017-10-23T13:03:48.081Z,3.37
2017-10-23T13:06:15.666Z,2.83
2017-10-23T13:08:43.888Z,3.07
2017-10-23T13:11:11.374Z,2.90
2017-10-23T13:13:38.828Z,3.37
2017-10-23T13:16:06.306Z,3.40
2017-10-23T13:18:34.522Z,4.10
2017-10-23T13:21:01.966Z,3.20
2017-10-23T13:23:29.459Z,3.90
2017-10-23T13:25:57.022Z,3.40
2017-10-23T13:28:24.477Z,3.03
2017-10-23T13:30:51.933Z,3.27
2017-10-23T13:33:19.501Z,3.47
2017-10-23T13:35:46.954Z,2.90
2017-10-23T13:38:14.397Z,3.37
2017-10-23T13:40:41.841Z,2.60
2017-10-23T13:43:09.305Z,2.20
2017-10-23T13:45:36.764Z,2.57
2017-10-23T13:48:04.206Z,3.23
2017-10-23T13:50:31.656Z,2.67
2017-10-23T13:52:59.132Z,2.47
2017-10-23T13:55:26.580Z,3.27
2017-10-23T13:57:54.234Z,2.90
2017-10-23T14:00:21.677Z,3.50
2017-10-23T14:02:49.157Z,3.77
2017-10-23T14:05:16.610Z,4.23
2017-10-23T14:07:44.184Z,4.00
2017-10-23T14:10:11.725Z,4.03
2017-10-23T14:12:39.185Z,4.33
2017-10-23T14:15:06.642Z,3.80
2017-10-23T14:17:34.494Z,3.60
2017-10-23T14:20:01.950Z,3.40
2017-10-23T14:22:29.393Z,3.30
2017-10-23T14:24:56.842Z,3.60
2017-10-23T14:27:24.294Z,3.30
2017-10-23T14:29:51.789Z,4.03
2017-10-23T14:32:20.742Z,4.10
2017-10-23T14:34:48.216Z,4.00
2017-10-23T14:37:15.658Z,3.57
2017-10-23T14:39:43.114Z,4.13
2017-10-23T14:42:10.614Z,3.33
2017-10-23T14:44:38.058Z,3.50
2017-10-23T14:47:05.618Z,3.63
2017-10-23T14:49:33.086Z,3.80
2017-10-23T14:52:00.621Z,3.40
2017-10-23T14:54:28.325Z,3.40
2017-10-23T14:56:56.561Z,3.33
2017-10-23T14:59:24.185Z,3.73
2017-10-23T15:01:51.622Z,3.23
2017-10-23T15:04:19.847Z,3.67
2017-10-23T15:06:47.305Z,3.90
2017-10-23T15:09:14.758Z,3.30
2017-10-23T15:11:42.320Z,3.87
2017-10-23T15:14:09.801Z,3.40
2017-10-23T15:16:38.018Z,4.10
2017-10-23T15:19:05.468Z,3.67
2017-10-23T15:21:32.930Z,5.10
2017-10-23T15:24:00.369Z,3.60
2017-10-23T15:26:27.828Z,3.53
2017-10-23T15:28:55.282Z,3.30
2017-10-23T15:31:22.721Z,3.70
2017-10-23T15:33:50.162Z,3.27
2017-10-23T15:36:18.831Z,3.53
2017-10-23T15:38:47.777Z,3.83
2017-10-23T15:41:15.236Z,3.53
2017-10-23T15:43:42.674Z,3.13
2017-10-23T15:46:10.170Z,3.33
2017-10-23T15:48:37.610Z,3.53
2017-10-23T15:51:05.066Z,4.53
2017-10-23T15:53:32.535Z,3.40
2017-10-23T15:55:59.981Z,3.27
2017-10-23T15:58:27.502Z,3.17
2017-10-23T16:00:55.013Z,3.30
2017-10-23T16:03:22.450Z,3.77
2017-10-23T16:05:50.667Z,4.07
2017-10-23T16:08:18.878Z,3.80
2017-10-23T16:10:47.086Z,3.60
2017-10-23T16:13:14.546Z,3.63
2017-10-23T16:15:42.100Z,3.53
2017-10-23T16:18:09.723Z,3.83
2017-10-23T16:20:38.230Z,4.93
2017-10-23T16:23:05.765Z,3.77
2017-10-23T16:25:33.226Z,4.90
2017-10-23T16:28:00.709Z,5.43
2017-10-23T16:30:28.265Z,4.50
2017-10-23T16:32:55.717Z,4.77
2017-10-23T16:35:23.182Z,5.23
2017-10-23T16:37:50.646Z,5.80
2017-10-23T16:40:18.089Z,5.20
2017-10-23T16:42:45.551Z,4.70
2017-10-23T16:45:12.992Z,5.30
2017-10-23T16:47:40.454Z,5.07
2017-10-23T16:50:07.909Z,5.80
2017-10-23T16:52:35.366Z,5.67
2017-10-23T16:55:02.809Z,4.93
2017-10-23T16:57:30.341Z,5.30
2017-10-23T16:59:58.206Z,5.83
2017-10-23T17:02:26.023Z,6.50
2017-10-23T17:04:53.594Z,5.73
2017-10-23T17:07:21.805Z,5.40
2017-10-23T17:09:49.262Z,5.53
2017-10-23T17:12:16.722Z,5.87
2017-10-23T17:14:44.178Z,5.47
2017-10-23T17:17:11.627Z,5.10
2017-10-23T17:19:39.082Z,5.97
2017-10-23T17:22:06.520Z,5.13
2017-10-23T17:24:34.012Z,5.47
2017-10-23T17:27:01.478Z,5.50
2017-10-23T17:29:28.926Z,4.80
2017-10-23T17:31:56.359Z,4.63
2017-10-23T17:34:24.368Z,5.33
2017-10-23T17:36:51.813Z,4.77
2017-10-23T17:39:19.273Z,4.87
2017-10-23T17:41:46.726Z,5.43
2017-10-23T17:44:14.953Z,4.97
2017-10-23T17:46:43.364Z,4.20
2017-10-23T17:49:10.825Z,5.27
2017-10-23T17:51:38.269Z,5.13
2017-10-23T17:54:05.734Z,4.80
2017-10-23T17:56:33.190Z,4.87
2017-10-23T17:59:00.694Z,4.20
2017-10-23T18:01:28.966Z,4.90
2017-10-23T18:03:58.178Z,4.73
2017-10-23T18:06:26.185Z,4.93
2017-10-23T18:08:53.670Z,4.83
2017-10-23T18:11:21.454Z,5.00
2017-10-23T18:13:49.672Z,4.23
2017-10-23T18:16:17.126Z,4.90
2017-10-23T18:18:44.846Z,4.70
2017-10-23T18:21:12.341Z,4.40
2017-10-23T18:23:40.803Z,5.07
2017-10-23T18:26:08.260Z,5.13
2017-10-23T18:28:35.947Z,4.90
2017-10-23T18:31:03.389Z,4.50
2017-10-23T18:33:30.894Z,4.10
2017-10-23T18:35:59.129Z,3.70
2017-10-23T18:38:26.611Z,4.40
2017-10-23T18:40:54.060Z,4.50
2017-10-23T18:43:22.404Z,4.43
2017-10-23T18:45:49.882Z,4.10
2017-10-23T18:51:10.925Z,4.27
2017-10-23T18:53:38.385Z,4.40
2017-10-23T18:56:05.869Z,4.80
2017-10-23T18:58:33.433Z,4.10
2017-10-23T19:01:00.977Z,6.03
2017-10-23T19:03:28.469Z,5.33
2017-10-23T19:05:55.985Z,5.60
2017-10-23T19:08:23.503Z,5.00
2017-10-23T19:10:50.958Z,4.30
2017-10-23T19:13:18.400Z,4.80
2017-10-23T19:15:46.627Z,4.90
2017-10-23T19:18:15.288Z,5.70
2017-10-23T19:20:42.795Z,5.77
2017-10-23T19:23:10.333Z,5.00
2017-10-23T19:25:37.777Z,6.00
2017-10-23T19:28:05.249Z,5.30
2017-10-23T19:30:32.699Z,5.67
2017-10-23T19:33:00.649Z,5.37
2017-10-23T19:35:28.154Z,5.87
2017-10-23T19:37:56.421Z,5.83
2017-10-23T19:40:24.692Z,5.50
2017-10-23T19:42:52.202Z,5.40
2017-10-23T19:45:19.724Z,6.00
2017-10-23T19:47:48.156Z,5.00
2017-10-23T19:50:15.618Z,5.70
2017-10-23T19:52:43.114Z,5.10
2017-10-23T19:55:10.633Z,5.43
2017-10-23T19:57:38.275Z,6.00
2017-10-23T20:00:05.788Z,5.60
2017-10-23T20:02:34.036Z,5.20
2017-10-23T20:05:01.941Z,5.63
2017-10-23T20:07:29.949Z,5.57
2017-10-23T20:09:57.435Z,5.70
2017-10-23T20:12:24.889Z,5.60
2017-10-23T20:14:52.341Z,5.67
2017-10-23T20:17:19.812Z,5.00
2017-10-23T20:19:48.059Z,5.40
2017-10-23T20:22:15.517Z,5.47
2017-10-23T20:24:43.065Z,4.93
2017-10-23T20:27:11.356Z,4.83
2017-10-23T20:29:38.796Z,5.60
2017-10-23T20:32:06.249Z,5.90
2017-10-23T20:34:33.789Z,4.90
2017-10-23T20:37:01.257Z,5.57
2017-10-23T20:39:29.465Z,5.60
2017-10-23T20:41:56.900Z,6.07
2017-10-23T20:44:24.344Z,5.20
2017-10-23T20:46:52.213Z,4.73
2017-10-23T20:49:19.777Z,5.50
2017-10-23T20:51:47.221Z,5.17
2017-10-23T20:54:14.685Z,5.10
2017-10-23T20:56:42.145Z,5.23
2017-10-23T20:59:10.357Z,4.60
2017-10-23T21:01:38.578Z,5.10
2017-10-23T21:04:06.029Z,5.00
2017-10-23T21:06:33.533Z,4.70
2017-10-23T21:09:01.846Z,4.87
2017-10-23T21:11:29.287Z,4.63
2017-10-23T21:13:56.725Z,5.43
2017-10-23T21:16:24.942Z,4.03
2017-10-23T21:18:53.033Z,3.93
2017-10-23T21:21:20.589Z,4.73
2017-10-23T21:23:48.170Z,4.60
2017-10-23T21:26:15.625Z,4.00
2017-10-23T21:28:43.081Z,4.33
2017-10-23T21:31:11.409Z,4.13
2017-10-23T21:33:38.832Z,4.00
2017-10-23T21:36:06.337Z,4.60
2017-10-23T21:38:33.798Z,4.97
2017-10-23T21:41:01.357Z,4.50
2017-10-23T21:43:28.802Z,4.43
2017-10-23T21:45:56.257Z,5.50
2017-10-23T21:48:23.717Z,4.80
2017-10-23T21:50:51.289Z,5.33
2017-10-23T21:53:18.734Z,5.13
2017-10-23T21:55:46.293Z,4.20
2017-10-23T21:58:13.853Z,4.50
2017-10-23T22:00:41.310Z,4.90
2017-10-23T22:03:08.870Z,4.83
2017-10-23T22:05:36.427Z,5.30
2017-10-23T22:08:03.861Z,5.10
2017-10-23T22:10:31.298Z,4.73
2017-10-23T22:12:58.741Z,5.30
2017-10-23T22:15:26.201Z,5.27
2017-10-23T22:17:53.696Z,5.70
2017-10-23T22:20:21.148Z,5.20
2017-10-23T22:22:48.591Z,4.57
2017-10-23T22:25:16.032Z,4.90
2017-10-23T22:27:43.514Z,5.30
2017-10-23T22:30:10.974Z,5.63
2017-10-23T22:32:38.546Z,4.83
2017-10-23T22:35:06.134Z,5.87
2017-10-23T22:37:34.345Z,4.60
2017-10-23T22:40:01.789Z,5.17
2017-10-23T22:42:29.238Z,5.10
2017-10-23T22:44:56.682Z,4.63
2017-10-23T22:47:24.221Z,5.20
2017-10-23T22:49:52.459Z,5.30
2017-10-23T22:52:19.915Z,4.93
2017-10-23T22:54:47.357Z,5.60
2017-10-23T22:57:14.801Z,4.70
2017-10-23T22:59:42.277Z,4.93
2017-10-23T23:02:09.846Z,5.03
2017-10-23T23:04:37.302Z,5.50
2017-10-23T23:07:04.865Z,5.10
2017-10-23T23:09:32.300Z,5.10
2017-10-23T23:11:59.764Z,4.90
2017-10-23T23:14:27.217Z,4.90
2017-10-23T23:16:54.661Z,5.17
2017-10-23T23:19:22.094Z,4.60
2017-10-23T23:21:49.536Z,4.83
2017-10-23T23:24:16.984Z,5.37
2017-10-23T23:26:45.225Z,5.23
2017-10-23T23:29:12.725Z,4.40
2017-10-23T23:31:40.164Z,4.90
2017-10-23T23:34:08.383Z,4.20
2017-10-23T23:36:35.826Z,4.70
2017-10-23T23:39:03.272Z,5.10
2017-10-23T23:41:30.709Z,4.93
2017-10-23T23:43:58.218Z,5.17
2017-10-23T23:46:25.673Z,4.93
2017-10-23T23:48:53.669Z,4.13
2017-10-23T23:51:21.107Z,4.60
2017-10-23T23:53:48.556Z,4.57
2017-10-23T23:56:15.989Z,4.50
2017-10-23T23:58:43.434Z,4.40
